createdAt,value
2019-03-22T00:00:59.961Z,81.00
2019-03-22T00:03:36.839Z,80.70
2019-03-22T00:06:12.693Z,80.70
2019-03-22T00:08:49.415Z,80.70
2019-03-22T00:11:26.444Z,81.00
2019-03-22T00:14:02.091Z,81.30
2019-03-22T00:16:46.974Z,81.60
2019-03-22T00:19:22.810Z,81.70
2019-03-22T00:21:57.497Z,81.50
2019-03-22T00:24:39.228Z,81.60
2019-03-22T00:27:16.744Z,81.80
2019-03-22T00:29:52.986Z,81.90
2019-03-22T00:32:35.202Z,81.70
2019-03-22T00:35:12.503Z,81.70
2019-03-22T00:37:47.703Z,81.70
2019-03-22T00:40:24.789Z,81.80
2019-03-22T00:43:11.103Z,81.70
2019-03-22T00:45:54.118Z,81.90
2019-03-22T00:48:30.983Z,82.10
2019-03-22T00:51:07.447Z,81.90
2019-03-22T00:53:43.712Z,82.10
2019-03-22T00:56:19.771Z,82.10
2019-03-22T00:58:56.500Z,81.80
2019-03-22T01:01:32.706Z,81.90
2019-03-22T01:04:09.987Z,81.80
2019-03-22T01:06:47.900Z,82.10
2019-03-22T01:09:25.996Z,81.80
2019-03-22T01:12:02.521Z,81.70
2019-03-22T01:14:38.930Z,81.80
2019-03-22T01:17:15.012Z,81.80
2019-03-22T01:19:51.510Z,82.10
2019-03-22T01:22:27.922Z,82.20
2019-03-22T01:25:03.981Z,81.90
2019-03-22T01:27:41.438Z,81.80
2019-03-22T01:30:19.777Z,82.10
2019-03-22T01:32:57.077Z,82.10
2019-03-22T01:35:41.122Z,82.10
2019-03-22T01:38:17.373Z,82.00
2019-03-22T01:40:54.045Z,82.30
2019-03-22T01:43:29.898Z,82.40
2019-03-22T01:49:09.457Z,82.50
2019-03-22T01:51:51.507Z,82.90
2019-03-22T01:54:27.713Z,83.20
2019-03-22T01:57:04.180Z,83.20
2019-03-22T01:59:40.529Z,83.00
2019-03-22T02:02:17.137Z,82.80
2019-03-22T02:04:54.408Z,83.00
2019-03-22T02:07:30.052Z,83.10
2019-03-22T02:10:06.115Z,83.30
2019-03-22T02:12:44.546Z,83.30
2019-03-22T02:15:20.540Z,83.60
2019-03-22T02:17:56.581Z,83.80
2019-03-22T02:20:33.817Z,83.80
2019-03-22T02:23:09.875Z,83.80
2019-03-22T02:25:46.140Z,83.70
2019-03-22T02:28:23.893Z,83.40
2019-03-22T02:31:00.931Z,83.50
2019-03-22T02:33:39.251Z,83.40
2019-03-22T02:36:16.103Z,83.50
2019-03-22T02:38:52.979Z,83.60
2019-03-22T02:41:29.050Z,83.70
2019-03-22T02:44:06.939Z,83.80
2019-03-22T02:46:44.845Z,84.00
2019-03-22T02:49:21.560Z,84.00
2019-03-22T02:51:59.824Z,84.10
2019-03-22T02:54:37.133Z,84.00
2019-03-22T02:57:15.020Z,83.90
2019-03-22T02:59:51.620Z,84.20
2019-03-22T03:02:27.595Z,84.40
2019-03-22T03:05:04.558Z,84.50
2019-03-22T03:07:40.881Z,84.50
2019-03-22T03:10:21.463Z,84.60
2019-03-22T03:12:57.561Z,84.50
2019-03-22T03:15:33.589Z,84.50
2019-03-22T03:18:10.235Z,84.70
2019-03-22T03:20:46.564Z,84.60
2019-03-22T03:23:21.937Z,84.90
2019-03-22T03:25:59.015Z,85.00
2019-03-22T03:28:37.186Z,85.30
2019-03-22T03:31:16.044Z,85.10
2019-03-22T03:33:52.103Z,85.00
2019-03-22T03:36:27.589Z,85.20
2019-03-22T03:39:04.221Z,85.30
2019-03-22T03:41:43.533Z,85.70
2019-03-22T03:44:21.049Z,85.20
2019-03-22T03:47:05.519Z,85.00
2019-03-22T03:49:41.590Z,84.90
2019-03-22T03:52:21.923Z,84.80
2019-03-22T03:54:58.792Z,84.80
2019-03-22T03:57:35.260Z,84.90
2019-03-22T04:00:14.183Z,85.00
2019-03-22T04:02:51.070Z,84.90
2019-03-22T04:05:27.592Z,85.30
2019-03-22T04:08:02.969Z,85.70
2019-03-22T04:10:40.579Z,85.70
2019-03-22T04:13:18.615Z,86.00
2019-03-22T04:15:55.583Z,86.00
2019-03-22T04:18:31.909Z,85.80
2019-03-22T04:21:07.603Z,85.80
2019-03-22T04:23:45.050Z,85.90
2019-03-22T04:26:21.923Z,86.00
2019-03-22T04:29:07.129Z,86.00
2019-03-22T04:31:36.088Z,86.10
2019-03-22T04:34:13.617Z,86.20
2019-03-22T04:36:54.188Z,86.20
2019-03-22T04:39:30.815Z,86.00
2019-03-22T04:42:08.100Z,86.10
2019-03-22T04:44:45.632Z,86.30
2019-03-22T04:47:25.545Z,86.50
2019-03-22T04:50:01.827Z,86.50
2019-03-22T04:52:38.885Z,86.40
2019-03-22T04:55:16.629Z,86.20
2019-03-22T04:57:54.886Z,86.40
2019-03-22T05:00:31.157Z,86.50
2019-03-22T05:03:10.594Z,86.70
2019-03-22T05:05:49.206Z,86.50
2019-03-22T05:08:29.154Z,86.50
2019-03-22T05:11:09.685Z,86.80
2019-03-22T05:17:32.112Z,86.40
2019-03-22T05:20:09.165Z,86.50
2019-03-22T05:22:48.604Z,86.60
2019-03-22T05:25:27.213Z,86.70
2019-03-22T05:28:06.969Z,86.70
2019-03-22T05:31:32.191Z,86.70
2019-03-22T05:34:10.902Z,86.90
2019-03-22T05:36:53.113Z,87.00
2019-03-22T05:39:29.607Z,86.90
2019-03-22T05:42:20.157Z,86.70
2019-03-22T05:45:00.721Z,86.80
2019-03-22T05:47:42.523Z,86.40
2019-03-22T05:50:20.003Z,86.50
2019-03-22T05:53:00.973Z,86.40
2019-03-22T05:55:42.151Z,86.60
2019-03-22T05:58:27.225Z,86.70
2019-03-22T06:01:11.266Z,86.80
2019-03-22T06:03:48.694Z,86.90
2019-03-22T06:06:24.665Z,87.00
2019-03-22T06:09:13.975Z,87.30
2019-03-22T06:11:52.288Z,87.00
2019-03-22T06:14:31.214Z,87.10
2019-03-22T06:17:16.670Z,87.40
2019-03-22T06:20:04.671Z,87.50
2019-03-22T06:22:39.696Z,87.50
2019-03-22T06:25:16.677Z,87.30
2019-03-22T06:27:53.207Z,87.10
2019-03-22T06:30:29.881Z,87.10
2019-03-22T06:33:07.171Z,87.00
2019-03-22T06:35:47.323Z,86.70
2019-03-22T06:38:23.182Z,86.50
2019-03-22T06:41:01.278Z,86.50
2019-03-22T06:43:40.672Z,86.70
2019-03-22T06:50:02.160Z,86.80
2019-03-22T06:56:21.034Z,86.20
2019-03-22T07:02:39.633Z,86.60
2019-03-22T07:05:18.433Z,86.90
2019-03-22T07:07:58.586Z,87.00
2019-03-22T07:10:37.928Z,87.30
2019-03-22T07:13:15.617Z,87.30
2019-03-22T07:15:57.793Z,87.40
2019-03-22T07:18:33.875Z,87.90
2019-03-22T07:24:38.285Z,87.50
2019-03-22T07:30:47.057Z,87.70
2019-03-22T07:33:37.058Z,87.10
2019-03-22T07:36:22.930Z,86.40
2019-03-22T07:39:00.012Z,86.30
2019-03-22T07:41:39.142Z,86.40
2019-03-22T07:47:56.008Z,86.00
2019-03-22T07:50:34.084Z,86.00
2019-03-22T07:53:12.030Z,86.10
2019-03-22T07:55:51.315Z,86.10
2019-03-22T07:58:27.884Z,85.70
2019-03-22T08:01:07.217Z,85.20
2019-03-22T08:03:44.104Z,85.10
2019-03-22T08:09:51.353Z,84.80
2019-03-22T08:12:26.550Z,83.80
2019-03-22T08:15:10.180Z,83.60
2019-03-22T08:17:52.378Z,84.00
2019-03-22T08:20:33.144Z,83.10
2019-03-22T08:23:14.944Z,83.40
2019-03-22T08:25:52.014Z,83.30
2019-03-22T08:28:27.874Z,83.20
2019-03-22T08:31:05.692Z,83.40
2019-03-22T08:33:46.127Z,83.30
2019-03-22T08:36:25.880Z,82.80
2019-03-22T08:39:06.241Z,82.20
2019-03-22T08:41:43.673Z,82.20
2019-03-22T08:44:22.049Z,81.20
2019-03-22T08:46:58.514Z,81.60
2019-03-22T08:49:34.486Z,81.60
2019-03-22T08:52:10.710Z,81.90
2019-03-22T08:54:45.697Z,81.90
2019-03-22T08:57:24.985Z,81.40
2019-03-22T09:00:01.684Z,80.10
2019-03-22T09:02:50.673Z,80.20
2019-03-22T09:05:27.901Z,80.00
2019-03-22T09:08:04.165Z,80.00
2019-03-22T09:10:43.636Z,79.30
2019-03-22T09:13:19.962Z,78.90
2019-03-22T09:15:55.201Z,77.60
2019-03-22T09:18:30.349Z,76.60
2019-03-22T09:21:25.714Z,76.30
2019-03-22T09:24:12.297Z,75.50
2019-03-22T09:26:52.200Z,75.20
2019-03-22T09:29:28.721Z,74.60
2019-03-22T09:32:10.257Z,74.50
2019-03-22T09:34:45.774Z,75.10
2019-03-22T09:37:23.708Z,74.70
2019-03-22T09:40:00.462Z,74.60
2019-03-22T09:42:37.705Z,75.20
2019-03-22T09:45:17.933Z,75.60
2019-03-22T09:48:01.010Z,75.90
2019-03-22T09:50:40.063Z,75.80
2019-03-22T09:53:18.203Z,76.40
2019-03-22T09:55:58.017Z,75.10
2019-03-22T09:58:38.529Z,74.70
2019-03-22T10:01:23.512Z,75.00
2019-03-22T10:03:53.776Z,74.70
2019-03-22T10:06:29.106Z,74.40
2019-03-22T10:09:05.479Z,74.20
2019-03-22T10:11:42.246Z,74.40
2019-03-22T10:14:26.759Z,73.80
2019-03-22T10:17:05.669Z,73.60
2019-03-22T10:19:42.350Z,73.40
2019-03-22T10:22:20.199Z,73.30
2019-03-22T10:28:28.286Z,73.10
2019-03-22T10:31:04.074Z,73.20
2019-03-22T10:33:44.242Z,73.10
2019-03-22T10:36:22.196Z,72.50
2019-03-22T10:38:59.430Z,72.50
2019-03-22T10:44:44.750Z,72.50
2019-03-22T10:50:51.517Z,72.30
2019-03-22T10:56:58.116Z,73.00
2019-03-22T10:59:36.427Z,72.50
2019-03-22T11:02:13.742Z,72.10
2019-03-22T11:04:51.743Z,71.30
2019-03-22T11:07:27.741Z,71.20
2019-03-22T11:10:04.531Z,71.00
2019-03-22T11:12:48.985Z,71.00
2019-03-22T11:15:25.453Z,69.90
2019-03-22T11:21:49.040Z,70.20
2019-03-22T11:24:48.052Z,69.90
2019-03-22T11:30:48.277Z,69.40
2019-03-22T11:36:51.395Z,68.80
2019-03-22T11:39:28.266Z,69.20
2019-03-22T11:42:04.792Z,69.40
2019-03-22T11:48:10.110Z,69.50
2019-03-22T11:50:50.258Z,69.30
2019-03-22T11:53:51.710Z,69.20
2019-03-22T12:00:08.803Z,69.20
2019-03-22T12:06:30.284Z,69.10
2019-03-22T12:12:46.298Z,69.20
2019-03-22T12:15:24.400Z,69.40
2019-03-22T12:18:00.794Z,68.90
2019-03-22T12:24:16.263Z,68.40
2019-03-22T12:26:52.117Z,69.00
2019-03-22T12:29:29.200Z,69.20
2019-03-22T12:32:06.077Z,68.80
2019-03-22T12:34:43.158Z,69.10
2019-03-22T12:37:21.262Z,68.80
2019-03-22T12:39:58.345Z,68.80
2019-03-22T12:42:36.663Z,69.10
2019-03-22T12:45:15.850Z,69.30
2019-03-22T12:47:51.023Z,68.40
2019-03-22T12:50:27.696Z,68.30
2019-03-22T12:53:04.369Z,68.10
2019-03-22T12:55:52.310Z,67.30
2019-03-22T12:58:29.389Z,67.30
2019-03-22T13:01:11.185Z,67.50
2019-03-22T13:07:28.432Z,67.50
2019-03-22T13:10:08.386Z,67.70
2019-03-22T13:12:47.094Z,67.70
2019-03-22T13:19:08.018Z,66.50
2019-03-22T13:21:47.351Z,67.00
2019-03-22T13:24:26.088Z,66.00
2019-03-22T13:30:48.448Z,65.60
2019-03-22T13:33:33.259Z,66.50
2019-03-22T13:36:11.407Z,65.90
2019-03-22T13:38:49.314Z,65.60
2019-03-22T13:41:31.034Z,66.10
2019-03-22T13:47:49.061Z,66.10
2019-03-22T13:54:07.223Z,65.30
2019-03-22T13:56:45.319Z,64.80
2019-03-22T13:59:21.376Z,65.30
2019-03-22T14:01:58.666Z,64.70
2019-03-22T14:04:35.540Z,64.30
2019-03-22T14:07:20.199Z,64.70
2019-03-22T14:09:59.124Z,65.50
2019-03-22T14:12:41.138Z,64.80
2019-03-22T14:15:23.152Z,64.30
2019-03-22T14:17:59.388Z,64.70
2019-03-22T14:20:38.555Z,64.60
2019-03-22T14:23:15.601Z,64.30
2019-03-22T14:25:53.715Z,64.10
2019-03-22T14:28:31.618Z,64.60
2019-03-22T14:31:12.161Z,64.80
2019-03-22T14:33:49.659Z,65.50
2019-03-22T14:39:55.432Z,65.70
2019-03-22T14:45:58.553Z,65.70
2019-03-22T14:48:37.259Z,64.80
2019-03-22T14:51:14.844Z,64.20
2019-03-22T14:57:20.324Z,64.00
2019-03-22T14:59:59.254Z,63.90
2019-03-22T15:02:38.370Z,63.70
2019-03-22T15:05:18.316Z,64.40
2019-03-22T15:07:55.399Z,65.90
2019-03-22T15:14:09.366Z,65.40
2019-03-22T15:17:06.312Z,63.40
2019-03-22T15:20:15.341Z,64.70
2019-03-22T15:23:13.428Z,64.90
2019-03-22T15:26:22.851Z,64.20
2019-03-22T15:29:16.438Z,65.60
2019-03-22T15:32:21.162Z,65.70
2019-03-22T15:35:15.910Z,65.80
2019-03-22T15:38:24.150Z,65.00
2019-03-22T15:41:01.853Z,64.20
2019-03-22T15:43:45.433Z,63.70
2019-03-22T15:46:22.469Z,63.70
2019-03-22T15:49:04.060Z,62.90
2019-03-22T15:51:59.184Z,62.50
2019-03-22T15:54:36.900Z,63.00
2019-03-22T15:57:15.174Z,63.50
2019-03-22T15:59:56.869Z,63.60
2019-03-22T16:02:33.895Z,64.10
2019-03-22T16:05:15.431Z,64.90
2019-03-22T16:07:54.347Z,65.10
2019-03-22T16:10:32.464Z,65.20
2019-03-22T16:13:12.399Z,65.50
2019-03-22T16:15:49.074Z,65.50
2019-03-22T16:18:31.484Z,65.50
2019-03-22T16:21:10.881Z,65.10
2019-03-22T16:23:51.172Z,64.60
2019-03-22T16:26:28.292Z,64.50
2019-03-22T16:29:06.876Z,64.00
2019-03-22T16:31:54.719Z,63.90
2019-03-22T16:34:33.427Z,64.70
2019-03-22T16:37:12.145Z,65.10
2019-03-22T16:39:59.471Z,65.70
2019-03-22T16:42:40.855Z,66.20
2019-03-22T16:45:29.819Z,66.60
2019-03-22T16:48:15.288Z,66.80
2019-03-22T16:50:52.780Z,66.90
2019-03-22T16:53:31.501Z,66.90
2019-03-22T16:56:12.474Z,66.70
2019-03-22T16:58:51.401Z,66.90
2019-03-22T17:01:29.297Z,67.40
2019-03-22T17:04:09.452Z,68.00
2019-03-22T17:06:51.653Z,68.30
2019-03-22T17:09:34.060Z,68.50
2019-03-22T17:12:15.172Z,68.80
2019-03-22T17:14:52.940Z,69.20
2019-03-22T17:17:35.755Z,69.00
2019-03-22T17:20:17.753Z,68.60
2019-03-22T17:23:09.275Z,68.80
2019-03-22T17:25:49.726Z,67.90
2019-03-22T17:28:28.652Z,68.20
2019-03-22T17:34:47.941Z,68.20
2019-03-22T17:38:07.014Z,67.90
2019-03-22T17:40:44.499Z,68.10
2019-03-22T17:43:29.994Z,68.20
2019-03-22T17:49:58.485Z,68.90
2019-03-22T17:56:02.374Z,69.40
2019-03-22T18:02:10.654Z,69.60
2019-03-22T18:04:48.539Z,69.00
2019-03-22T18:07:26.745Z,68.70
2019-03-22T18:13:31.393Z,69.20
2019-03-22T18:16:08.496Z,69.30
2019-03-22T18:18:45.168Z,68.50
2019-03-22T18:24:50.612Z,68.40
2019-03-22T18:27:27.694Z,68.00
2019-03-22T18:30:04.779Z,68.20
2019-03-22T18:36:10.548Z,68.10
2019-03-22T18:38:51.738Z,68.00
2019-03-22T18:51:01.881Z,68.90
2019-03-22T18:57:18.474Z,68.50
2019-03-22T19:00:07.187Z,68.40
2019-03-22T19:02:44.112Z,69.20
2019-03-22T19:05:22.303Z,69.60
2019-03-22T19:07:59.918Z,69.60
2019-03-22T19:10:38.300Z,69.80
2019-03-22T19:13:30.404Z,70.30
2019-03-22T19:19:18.608Z,70.40
2019-03-22T19:25:36.872Z,70.50
2019-03-22T19:28:18.869Z,70.40
2019-03-22T19:30:56.773Z,70.50
2019-03-22T19:33:37.318Z,70.60
2019-03-22T19:36:16.682Z,70.80
2019-03-22T19:38:58.877Z,70.50
2019-03-22T19:41:40.877Z,70.70
2019-03-22T19:44:25.741Z,70.70
2019-03-22T19:47:06.909Z,71.00
2019-03-22T19:49:50.346Z,71.20
2019-03-22T19:52:29.890Z,71.40
2019-03-22T19:55:08.602Z,71.30
2019-03-22T19:57:46.923Z,71.00
2019-03-22T20:00:27.324Z,71.00
2019-03-22T20:03:04.552Z,71.40
2019-03-22T20:05:47.330Z,71.70
2019-03-22T20:08:25.331Z,71.70
2019-03-22T20:11:04.809Z,72.10
2019-03-22T20:13:43.936Z,72.10
2019-03-22T20:16:21.635Z,72.20
2019-03-22T20:18:58.337Z,72.30
2019-03-22T20:21:37.864Z,72.80
2019-03-22T20:24:15.540Z,73.00
2019-03-22T20:30:33.614Z,72.90
2019-03-22T20:33:11.911Z,73.40
2019-03-22T20:42:19.162Z,73.60
2019-03-22T20:45:07.397Z,73.00
2019-03-22T20:54:16.971Z,72.90
2019-03-22T20:57:09.840Z,72.30
2019-03-22T21:03:38.960Z,71.90
2019-03-22T21:06:19.924Z,72.10
2019-03-22T21:09:03.996Z,72.50
2019-03-22T21:11:49.546Z,72.60
2019-03-22T21:14:33.761Z,72.70
2019-03-22T21:17:12.808Z,72.80
2019-03-22T21:19:52.141Z,72.70
2019-03-22T21:22:29.395Z,72.70
2019-03-22T21:25:16.161Z,72.60
2019-03-22T21:28:07.272Z,72.80
2019-03-22T21:30:48.322Z,73.30
2019-03-22T21:33:28.381Z,73.40
2019-03-22T21:36:07.601Z,73.00
2019-03-22T21:42:02.927Z,73.10
2019-03-22T21:48:12.184Z,73.30
2019-03-22T21:54:09.764Z,73.30
2019-03-22T22:00:29.078Z,73.20
2019-03-22T22:06:49.993Z,73.80
2019-03-22T22:09:29.946Z,73.90
2019-03-22T22:12:10.681Z,74.10
2019-03-22T22:14:48.518Z,74.00
2019-03-22T22:17:28.037Z,74.10
2019-03-22T22:23:48.146Z,73.90
2019-03-22T22:26:26.703Z,74.40
2019-03-22T22:29:08.248Z,74.90
2019-03-22T22:31:47.991Z,74.70
2019-03-22T22:34:25.075Z,74.60
2019-03-22T22:40:44.683Z,74.50
2019-03-22T22:46:54.243Z,74.40
2019-03-22T22:49:38.078Z,74.80
2019-03-22T22:52:17.212Z,74.90
2019-03-22T22:54:54.504Z,74.40
2019-03-22T22:57:31.159Z,74.20
2019-03-22T23:03:38.995Z,74.90
2019-03-22T23:09:47.220Z,74.80
2019-03-22T23:12:30.245Z,74.60
2019-03-22T23:15:07.107Z,75.00
2019-03-22T23:17:46.237Z,75.00
2019-03-22T23:20:27.006Z,75.30
2019-03-22T23:26:34.712Z,75.10
2019-03-22T23:32:53.097Z,75.60
2019-03-22T23:35:34.294Z,75.80
2019-03-22T23:38:14.011Z,75.90
2019-03-22T23:40:54.708Z,75.50
2019-03-22T23:43:32.270Z,75.80
2019-03-22T23:46:09.555Z,75.90
2019-03-22T23:52:18.414Z,75.80
2019-03-22T23:58:03.299Z,76.10
